sensor_id;sensor_type;location;lat;lon;timestamp;P1;P2;P0
70691;PMS5003;58267;51.156;17.044;2023-06-14T00:00:01;13;12;
70691;PMS5003;58267;51.156;17.044;2023-06-14T00:02:26;13;13;
70691;PMS5003;58267;51.156;17.044;2023-06-14T00:04:51;14;14;
70691;PMS5003;58267;51.156;17.044;2023-06-14T00:07:16;17;17;
70691;PMS5003;58267;51.156;17.044;2023-06-14T00:09:42;16;14;
70691;PMS5003;58267;51.156;17.044;2023-06-14T00:12:08;15;14;
70691;PMS5003;58267;51.156;17.044;2023-06-14T00:14:33;18;18;
70691;PMS5003;58267;51.156;17.044;2023-06-14T00:16:58;18;17;
70691;PMS5003;58267;51.156;17.044;2023-06-14T00:19:24;16;16;
70691;PMS5003;58267;51.156;17.044;2023-06-14T00:21:49;15;14;
70691;PMS5003;58267;51.156;17.044;2023-06-14T00:24:15;17;16;
70691;PMS5003;58267;51.156;17.044;2023-06-14T00:26:40;14;13;
70691;PMS5003;58267;51.156;17.044;2023-06-14T00:29:05;15;14;
70691;PMS5003;58267;51.156;17.044;2023-06-14T00:31:30;15;14;
70691;PMS5003;58267;51.156;17.044;2023-06-14T00:33:56;13;13;
70691;PMS5003;58267;51.156;17.044;2023-06-14T00:36:21;18;16;
70691;PMS5003;58267;51.156;17.044;2023-06-14T00:38:46;15;14;
70691;PMS5003;58267;51.156;17.044;2023-06-14T00:41:12;16;15;
70691;PMS5003;58267;51.156;17.044;2023-06-14T00:43:37;17;17;
70691;PMS5003;58267;51.156;17.044;2023-06-14T00:46:02;16;15;
70691;PMS5003;58267;51.156;17.044;2023-06-14T00:48:28;15;14;
70691;PMS5003;58267;51.156;17.044;2023-06-14T00:50:53;16;15;
70691;PMS5003;58267;51.156;17.044;2023-06-14T00:53:19;14;14;
70691;PMS5003;58267;51.156;17.044;2023-06-14T00:55:44;18;17;
70691;PMS5003;58267;51.156;17.044;2023-06-14T00:58:10;15;15;
70691;PMS5003;58267;51.156;17.044;2023-06-14T01:00:35;15;14;
70691;PMS5003;58267;51.156;17.044;2023-06-14T01:03:01;16;15;
70691;PMS5003;58267;51.156;17.044;2023-06-14T01:05:26;13;13;
70691;PMS5003;58267;51.156;17.044;2023-06-14T01:07:56;17;16;
70691;PMS5003;58267;51.156;17.044;2023-06-14T01:10:23;15;15;
70691;PMS5003;58267;51.156;17.044;2023-06-14T01:12:44;16;15;
70691;PMS5003;58267;51.156;17.044;2023-06-14T01:15:08;18;17;
70691;PMS5003;58267;51.156;17.044;2023-06-14T01:17:33;16;16;
70691;PMS5003;58267;51.156;17.044;2023-06-14T01:19:59;17;17;
70691;PMS5003;58267;51.156;17.044;2023-06-14T01:22:24;16;15;
70691;PMS5003;58267;51.156;17.044;2023-06-14T01:24:50;17;16;
70691;PMS5003;58267;51.156;17.044;2023-06-14T01:27:15;17;16;
70691;PMS5003;58267;51.156;17.044;2023-06-14T01:29:41;18;18;
70691;PMS5003;58267;51.156;17.044;2023-06-14T01:32:06;17;17;
70691;PMS5003;58267;51.156;17.044;2023-06-14T01:34:31;16;16;
70691;PMS5003;58267;51.156;17.044;2023-06-14T01:36:57;16;15;
70691;PMS5003;58267;51.156;17.044;2023-06-14T01:39:22;13;13;
70691;PMS5003;58267;51.156;17.044;2023-06-14T01:41:47;15;15;
70691;PMS5003;58267;51.156;17.044;2023-06-14T01:44:13;16;15;
70691;PMS5003;58267;51.156;17.044;2023-06-14T01:46:38;16;15;
70691;PMS5003;58267;51.156;17.044;2023-06-14T01:49:03;16;15;
70691;PMS5003;58267;51.156;17.044;2023-06-14T01:51:29;17;17;
70691;PMS5003;58267;51.156;17.044;2023-06-14T01:53:54;14;13;
70691;PMS5003;58267;51.156;17.044;2023-06-14T01:56:19;15;14;
70691;PMS5003;58267;51.156;17.044;2023-06-14T01:58:45;21;19;
70691;PMS5003;58267;51.156;17.044;2023-06-14T02:01:10;18;16;
70691;PMS5003;58267;51.156;17.044;2023-06-14T02:03:36;17;16;
70691;PMS5003;58267;51.156;17.044;2023-06-14T02:06:01;18;18;
70691;PMS5003;58267;51.156;17.044;2023-06-14T02:08:26;16;15;
70691;PMS5003;58267;51.156;17.044;2023-06-14T02:10:52;20;19;
70691;PMS5003;58267;51.156;17.044;2023-06-14T02:13:17;15;14;
70691;PMS5003;58267;51.156;17.044;2023-06-14T02:15:43;18;16;
70691;PMS5003;58267;51.156;17.044;2023-06-14T02:18:08;16;16;
70691;PMS5003;58267;51.156;17.044;2023-06-14T02:20:33;18;17;
70691;PMS5003;58267;51.156;17.044;2023-06-14T02:23:00;18;18;
70691;PMS5003;58267;51.156;17.044;2023-06-14T02:25:24;16;16;
70691;PMS5003;58267;51.156;17.044;2023-06-14T02:27:49;18;18;
70691;PMS5003;58267;51.156;17.044;2023-06-14T02:30:15;19;19;
70691;PMS5003;58267;51.156;17.044;2023-06-14T02:32:40;16;15;
70691;PMS5003;58267;51.156;17.044;2023-06-14T02:35:06;15;15;
70691;PMS5003;58267;51.156;17.044;2023-06-14T02:37:31;16;16;
70691;PMS5003;58267;51.156;17.044;2023-06-14T02:39:56;17;17;
70691;PMS5003;58267;51.156;17.044;2023-06-14T02:42:22;17;17;
70691;PMS5003;58267;51.156;17.044;2023-06-14T02:44:47;18;18;
70691;PMS5003;58267;51.156;17.044;2023-06-14T02:47:12;18;18;
70691;PMS5003;58267;51.156;17.044;2023-06-14T02:49:38;18;17;
70691;PMS5003;58267;51.156;17.044;2023-06-14T02:52:04;18;17;
70691;PMS5003;58267;51.156;17.044;2023-06-14T02:54:29;16;15;
70691;PMS5003;58267;51.156;17.044;2023-06-14T02:56:54;16;16;
70691;PMS5003;58267;51.156;17.044;2023-06-14T02:59:20;16;15;
70691;PMS5003;58267;51.156;17.044;2023-06-14T03:01:45;16;15;
70691;PMS5003;58267;51.156;17.044;2023-06-14T03:04:11;20;19;
70691;PMS5003;58267;51.156;17.044;2023-06-14T03:06:36;15;15;
70691;PMS5003;58267;51.156;17.044;2023-06-14T03:09:03;17;16;
70691;PMS5003;58267;51.156;17.044;2023-06-14T03:11:28;20;19;
70691;PMS5003;58267;51.156;17.044;2023-06-14T03:13:53;15;15;
70691;PMS5003;58267;51.156;17.044;2023-06-14T03:16:18;14;14;
70691;PMS5003;58267;51.156;17.044;2023-06-14T03:18:43;19;19;
70691;PMS5003;58267;51.156;17.044;2023-06-14T03:21:09;16;16;
70691;PMS5003;58267;51.156;17.044;2023-06-14T03:23:34;18;17;
70691;PMS5003;58267;51.156;17.044;2023-06-14T03:25:59;13;13;
70691;PMS5003;58267;51.156;17.044;2023-06-14T03:28:25;16;16;
70691;PMS5003;58267;51.156;17.044;2023-06-14T03:30:51;18;18;
70691;PMS5003;58267;51.156;17.044;2023-06-14T03:33:17;18;18;
70691;PMS5003;58267;51.156;17.044;2023-06-14T03:35:43;15;15;
70691;PMS5003;58267;51.156;17.044;2023-06-14T03:38:07;17;15;
70691;PMS5003;58267;51.156;17.044;2023-06-14T03:40:33;18;17;
70691;PMS5003;58267;51.156;17.044;2023-06-14T03:42:58;22;21;
70691;PMS5003;58267;51.156;17.044;2023-06-14T03:45:24;21;20;
70691;PMS5003;58267;51.156;17.044;2023-06-14T03:47:49;16;16;
70691;PMS5003;58267;51.156;17.044;2023-06-14T03:50:14;19;19;
70691;PMS5003;58267;51.156;17.044;2023-06-14T03:52:40;19;18;
70691;PMS5003;58267;51.156;17.044;2023-06-14T03:55:05;17;17;
70691;PMS5003;58267;51.156;17.044;2023-06-14T03:57:30;16;16;
70691;PMS5003;58267;51.156;17.044;2023-06-14T03:59:55;20;19;
70691;PMS5003;58267;51.156;17.044;2023-06-14T04:02:21;16;15;
70691;PMS5003;58267;51.156;17.044;2023-06-14T04:04:46;21;20;
70691;PMS5003;58267;51.156;17.044;2023-06-14T04:07:12;18;17;
70691;PMS5003;58267;51.156;17.044;2023-06-14T04:09:37;20;19;
70691;PMS5003;58267;51.156;17.044;2023-06-14T04:12:03;19;18;
70691;PMS5003;58267;51.156;17.044;2023-06-14T04:14:28;20;20;
70691;PMS5003;58267;51.156;17.044;2023-06-14T04:16:54;21;18;
70691;PMS5003;58267;51.156;17.044;2023-06-14T04:19:19;18;18;
70691;PMS5003;58267;51.156;17.044;2023-06-14T04:21:44;19;17;
70691;PMS5003;58267;51.156;17.044;2023-06-14T04:24:09;18;17;
70691;PMS5003;58267;51.156;17.044;2023-06-14T04:26:35;17;17;
70691;PMS5003;58267;51.156;17.044;2023-06-14T04:29:00;18;17;
70691;PMS5003;58267;51.156;17.044;2023-06-14T04:31:26;17;17;
70691;PMS5003;58267;51.156;17.044;2023-06-14T04:33:51;18;17;
70691;PMS5003;58267;51.156;17.044;2023-06-14T04:36:17;21;21;
70691;PMS5003;58267;51.156;17.044;2023-06-14T04:38:42;20;18;
70691;PMS5003;58267;51.156;17.044;2023-06-14T04:41:07;205;188;
70691;PMS5003;58267;51.156;17.044;2023-06-14T04:43:33;159;136;
70691;PMS5003;58267;51.156;17.044;2023-06-14T04:45:58;148;132;
70691;PMS5003;58267;51.156;17.044;2023-06-14T04:48:24;99;95;
70691;PMS5003;58267;51.156;17.044;2023-06-14T04:50:50;74;71;
70691;PMS5003;58267;51.156;17.044;2023-06-14T04:53:15;75;72;
70691;PMS5003;58267;51.156;17.044;2023-06-14T04:55:41;53;52;
70691;PMS5003;58267;51.156;17.044;2023-06-14T04:58:08;60;56;
70691;PMS5003;58267;51.156;17.044;2023-06-14T05:00:33;37;36;
70691;PMS5003;58267;51.156;17.044;2023-06-14T05:02:59;25;25;
70691;PMS5003;58267;51.156;17.044;2023-06-14T05:05:24;23;22;
70691;PMS5003;58267;51.156;17.044;2023-06-14T05:07:50;32;31;
70691;PMS5003;58267;51.156;17.044;2023-06-14T05:10:15;78;74;
70691;PMS5003;58267;51.156;17.044;2023-06-14T05:12:40;77;74;
70691;PMS5003;58267;51.156;17.044;2023-06-14T05:15:06;45;42;
70691;PMS5003;58267;51.156;17.044;2023-06-14T05:17:31;35;32;
70691;PMS5003;58267;51.156;17.044;2023-06-14T05:19:56;22;21;
70691;PMS5003;58267;51.156;17.044;2023-06-14T05:22:22;22;22;
70691;PMS5003;58267;51.156;17.044;2023-06-14T05:24:47;15;15;
70691;PMS5003;58267;51.156;17.044;2023-06-14T05:27:12;19;19;
70691;PMS5003;58267;51.156;17.044;2023-06-14T05:29:38;16;16;
70691;PMS5003;58267;51.156;17.044;2023-06-14T05:32:03;17;16;
70691;PMS5003;58267;51.156;17.044;2023-06-14T05:34:29;16;15;
70691;PMS5003;58267;51.156;17.044;2023-06-14T05:36:54;14;13;
70691;PMS5003;58267;51.156;17.044;2023-06-14T05:39:19;15;13;
70691;PMS5003;58267;51.156;17.044;2023-06-14T05:41:45;19;18;
70691;PMS5003;58267;51.156;17.044;2023-06-14T05:44:10;25;24;
70691;PMS5003;58267;51.156;17.044;2023-06-14T05:46:35;22;21;
70691;PMS5003;58267;51.156;17.044;2023-06-14T05:49:01;22;21;
70691;PMS5003;58267;51.156;17.044;2023-06-14T05:51:27;25;25;
70691;PMS5003;58267;51.156;17.044;2023-06-14T05:53:52;22;21;
70691;PMS5003;58267;51.156;17.044;2023-06-14T05:56:19;23;21;
70691;PMS5003;58267;51.156;17.044;2023-06-14T05:58:44;23;23;
70691;PMS5003;58267;51.156;17.044;2023-06-14T06:01:10;25;24;
70691;PMS5003;58267;51.156;17.044;2023-06-14T06:03:35;23;23;
70691;PMS5003;58267;51.156;17.044;2023-06-14T06:06:00;24;23;
70691;PMS5003;58267;51.156;17.044;2023-06-14T06:08:25;30;27;
70691;PMS5003;58267;51.156;17.044;2023-06-14T06:10:51;28;27;
70691;PMS5003;58267;51.156;17.044;2023-06-14T06:13:17;27;24;
70691;PMS5003;58267;51.156;17.044;2023-06-14T06:15:43;25;24;
70691;PMS5003;58267;51.156;17.044;2023-06-14T06:18:08;27;26;
70691;PMS5003;58267;51.156;17.044;2023-06-14T06:20:34;22;22;
70691;PMS5003;58267;51.156;17.044;2023-06-14T06:23:00;24;23;
70691;PMS5003;58267;51.156;17.044;2023-06-14T06:25:25;23;23;
70691;PMS5003;58267;51.156;17.044;2023-06-14T06:27:50;24;23;
70691;PMS5003;58267;51.156;17.044;2023-06-14T06:30:15;25;21;
70691;PMS5003;58267;51.156;17.044;2023-06-14T06:32:41;28;25;
70691;PMS5003;58267;51.156;17.044;2023-06-14T06:35:07;24;23;
70691;PMS5003;58267;51.156;17.044;2023-06-14T06:37:32;28;26;
70691;PMS5003;58267;51.156;17.044;2023-06-14T06:39:58;24;24;
70691;PMS5003;58267;51.156;17.044;2023-06-14T06:42:23;30;29;
70691;PMS5003;58267;51.156;17.044;2023-06-14T06:44:48;30;29;
70691;PMS5003;58267;51.156;17.044;2023-06-14T06:47:14;26;25;
70691;PMS5003;58267;51.156;17.044;2023-06-14T06:49:40;28;25;
70691;PMS5003;58267;51.156;17.044;2023-06-14T06:52:06;29;27;
70691;PMS5003;58267;51.156;17.044;2023-06-14T06:54:31;27;26;
70691;PMS5003;58267;51.156;17.044;2023-06-14T06:56:56;27;25;
70691;PMS5003;58267;51.156;17.044;2023-06-14T06:59:22;31;29;
70691;PMS5003;58267;51.156;17.044;2023-06-14T07:01:48;26;26;
70691;PMS5003;58267;51.156;17.044;2023-06-14T07:04:14;28;27;
70691;PMS5003;58267;51.156;17.044;2023-06-14T07:06:39;28;28;
70691;PMS5003;58267;51.156;17.044;2023-06-14T07:09:04;31;27;
70691;PMS5003;58267;51.156;17.044;2023-06-14T07:11:29;29;25;
70691;PMS5003;58267;51.156;17.044;2023-06-14T07:13:54;33;31;
70691;PMS5003;58267;51.156;17.044;2023-06-14T07:16:20;28;28;
70691;PMS5003;58267;51.156;17.044;2023-06-14T07:18:45;29;27;
70691;PMS5003;58267;51.156;17.044;2023-06-14T07:21:10;32;31;
70691;PMS5003;58267;51.156;17.044;2023-06-14T07:23:36;28;26;
70691;PMS5003;58267;51.156;17.044;2023-06-14T07:26:01;30;28;
70691;PMS5003;58267;51.156;17.044;2023-06-14T07:28:26;28;27;
70691;PMS5003;58267;51.156;17.044;2023-06-14T07:30:52;26;24;
70691;PMS5003;58267;51.156;17.044;2023-06-14T07:33:17;30;29;
70691;PMS5003;58267;51.156;17.044;2023-06-14T07:35:43;25;23;
70691;PMS5003;58267;51.156;17.044;2023-06-14T07:38:09;24;24;
70691;PMS5003;58267;51.156;17.044;2023-06-14T07:40:34;30;28;
70691;PMS5003;58267;51.156;17.044;2023-06-14T07:42:59;30;27;
70691;PMS5003;58267;51.156;17.044;2023-06-14T07:45:25;28;24;
70691;PMS5003;58267;51.156;17.044;2023-06-14T07:47:50;29;27;
70691;PMS5003;58267;51.156;17.044;2023-06-14T07:50:15;27;27;
70691;PMS5003;58267;51.156;17.044;2023-06-14T07:52:40;250;217;
70691;PMS5003;58267;51.156;17.044;2023-06-14T07:55:06;182;166;
70691;PMS5003;58267;51.156;17.044;2023-06-14T07:57:31;128;118;
70691;PMS5003;58267;51.156;17.044;2023-06-14T07:59:56;94;88;
70691;PMS5003;58267;51.156;17.044;2023-06-14T08:02:21;96;87;
70691;PMS5003;58267;51.156;17.044;2023-06-14T08:04:47;76;70;
70691;PMS5003;58267;51.156;17.044;2023-06-14T08:07:12;76;65;
70691;PMS5003;58267;51.156;17.044;2023-06-14T08:09:38;156;135;
70691;PMS5003;58267;51.156;17.044;2023-06-14T08:12:03;141;126;
70691;PMS5003;58267;51.156;17.044;2023-06-14T08:14:28;83;77;
70691;PMS5003;58267;51.156;17.044;2023-06-14T08:16:54;51;49;
70691;PMS5003;58267;51.156;17.044;2023-06-14T08:19:19;44;42;
70691;PMS5003;58267;51.156;17.044;2023-06-14T08:21:44;40;37;
70691;PMS5003;58267;51.156;17.044;2023-06-14T08:24:10;36;33;
70691;PMS5003;58267;51.156;17.044;2023-06-14T08:26:35;29;26;
70691;PMS5003;58267;51.156;17.044;2023-06-14T08:29:00;31;29;
70691;PMS5003;58267;51.156;17.044;2023-06-14T08:31:26;24;24;
70691;PMS5003;58267;51.156;17.044;2023-06-14T08:33:51;21;20;
70691;PMS5003;58267;51.156;17.044;2023-06-14T08:36:16;22;20;
70691;PMS5003;58267;51.156;17.044;2023-06-14T08:38:42;21;21;
70691;PMS5003;58267;51.156;17.044;2023-06-14T08:41:07;24;22;
70691;PMS5003;58267;51.156;17.044;2023-06-14T08:43:33;22;20;
70691;PMS5003;58267;51.156;17.044;2023-06-14T08:45:58;16;16;
70691;PMS5003;58267;51.156;17.044;2023-06-14T08:48:24;18;17;
70691;PMS5003;58267;51.156;17.044;2023-06-14T08:50:49;17;17;
70691;PMS5003;58267;51.156;17.044;2023-06-14T08:53:14;17;17;
70691;PMS5003;58267;51.156;17.044;2023-06-14T08:55:40;18;17;
70691;PMS5003;58267;51.156;17.044;2023-06-14T08:58:05;15;15;
70691;PMS5003;58267;51.156;17.044;2023-06-14T09:00:31;19;18;
70691;PMS5003;58267;51.156;17.044;2023-06-14T09:02:56;15;14;
70691;PMS5003;58267;51.156;17.044;2023-06-14T09:05:22;16;16;
70691;PMS5003;58267;51.156;17.044;2023-06-14T09:07:48;15;14;
70691;PMS5003;58267;51.156;17.044;2023-06-14T09:10:14;13;13;
70691;PMS5003;58267;51.156;17.044;2023-06-14T09:12:39;12;11;
70691;PMS5003;58267;51.156;17.044;2023-06-14T09:15:05;12;12;
70691;PMS5003;58267;51.156;17.044;2023-06-14T09:17:29;13;12;
70691;PMS5003;58267;51.156;17.044;2023-06-14T09:19:55;11;10;
70691;PMS5003;58267;51.156;17.044;2023-06-14T09:22:20;12;12;
70691;PMS5003;58267;51.156;17.044;2023-06-14T09:24:46;11;11;
70691;PMS5003;58267;51.156;17.044;2023-06-14T09:27:14;13;12;
70691;PMS5003;58267;51.156;17.044;2023-06-14T09:29:37;13;13;
70691;PMS5003;58267;51.156;17.044;2023-06-14T09:32:02;13;11;
70691;PMS5003;58267;51.156;17.044;2023-06-14T09:34:27;12;11;
70691;PMS5003;58267;51.156;17.044;2023-06-14T09:36:52;11;11;
70691;PMS5003;58267;51.156;17.044;2023-06-14T09:39:18;10;10;
70691;PMS5003;58267;51.156;17.044;2023-06-14T09:41:43;12;11;
70691;PMS5003;58267;51.156;17.044;2023-06-14T09:44:09;13;11;
70691;PMS5003;58267;51.156;17.044;2023-06-14T09:46:35;11;10;
70691;PMS5003;58267;51.156;17.044;2023-06-14T09:49:00;10;10;
70691;PMS5003;58267;51.156;17.044;2023-06-14T09:51:26;10;10;
70691;PMS5003;58267;51.156;17.044;2023-06-14T09:53:51;11;11;
70691;PMS5003;58267;51.156;17.044;2023-06-14T09:56:17;15;14;
70691;PMS5003;58267;51.156;17.044;2023-06-14T09:58:42;11;10;
70691;PMS5003;58267;51.156;17.044;2023-06-14T10:01:08;9;9;
70691;PMS5003;58267;51.156;17.044;2023-06-14T10:03:33;11;10;
70691;PMS5003;58267;51.156;17.044;2023-06-14T10:05:58;10;10;
70691;PMS5003;58267;51.156;17.044;2023-06-14T10:08:24;12;12;
70691;PMS5003;58267;51.156;17.044;2023-06-14T10:10:49;10;10;
70691;PMS5003;58267;51.156;17.044;2023-06-14T10:13:14;8;8;
70691;PMS5003;58267;51.156;17.044;2023-06-14T10:15:41;12;11;
70691;PMS5003;58267;51.156;17.044;2023-06-14T10:18:06;9;9;
70691;PMS5003;58267;51.156;17.044;2023-06-14T10:20:32;9;9;
70691;PMS5003;58267;51.156;17.044;2023-06-14T10:22:57;11;11;
70691;PMS5003;58267;51.156;17.044;2023-06-14T10:25:26;10;10;
70691;PMS5003;58267;51.156;17.044;2023-06-14T10:27:46;9;9;
70691;PMS5003;58267;51.156;17.044;2023-06-14T10:30:11;10;10;
70691;PMS5003;58267;51.156;17.044;2023-06-14T10:35:04;11;10;
70691;PMS5003;58267;51.156;17.044;2023-06-14T10:37:27;13;12;
70691;PMS5003;58267;51.156;17.044;2023-06-14T10:39:53;10;10;
70691;PMS5003;58267;51.156;17.044;2023-06-14T10:42:19;8;8;
70691;PMS5003;58267;51.156;17.044;2023-06-14T10:44:45;10;10;
70691;PMS5003;58267;51.156;17.044;2023-06-14T10:47:10;10;10;
70691;PMS5003;58267;51.156;17.044;2023-06-14T10:49:38;9;9;
70691;PMS5003;58267;51.156;17.044;2023-06-14T10:51:59;9;9;
70691;PMS5003;58267;51.156;17.044;2023-06-14T10:54:24;13;13;
70691;PMS5003;58267;51.156;17.044;2023-06-14T10:56:50;9;9;
70691;PMS5003;58267;51.156;17.044;2023-06-14T10:59:16;9;9;
70691;PMS5003;58267;51.156;17.044;2023-06-14T11:01:41;10;9;
70691;PMS5003;58267;51.156;17.044;2023-06-14T11:04:08;11;11;
70691;PMS5003;58267;51.156;17.044;2023-06-14T11:06:30;11;10;
70691;PMS5003;58267;51.156;17.044;2023-06-14T11:11:21;8;8;
70691;PMS5003;58267;51.156;17.044;2023-06-14T11:13:46;10;9;
70691;PMS5003;58267;51.156;17.044;2023-06-14T11:16:11;9;9;
70691;PMS5003;58267;51.156;17.044;2023-06-14T11:18:36;10;9;
70691;PMS5003;58267;51.156;17.044;2023-06-14T11:21:01;10;10;
70691;PMS5003;58267;51.156;17.044;2023-06-14T11:23:26;10;9;
70691;PMS5003;58267;51.156;17.044;2023-06-14T11:25:52;8;8;
70691;PMS5003;58267;51.156;17.044;2023-06-14T11:28:17;9;9;
70691;PMS5003;58267;51.156;17.044;2023-06-14T11:30:42;8;8;
70691;PMS5003;58267;51.156;17.044;2023-06-14T11:33:09;10;9;
70691;PMS5003;58267;51.156;17.044;2023-06-14T11:35:33;9;8;
70691;PMS5003;58267;51.156;17.044;2023-06-14T11:37:57;7;7;
70691;PMS5003;58267;51.156;17.044;2023-06-14T11:40:23;7;7;
70691;PMS5003;58267;51.156;17.044;2023-06-14T11:42:48;7;7;
70691;PMS5003;58267;51.156;17.044;2023-06-14T11:45:13;8;8;
70691;PMS5003;58267;51.156;17.044;2023-06-14T11:47:39;9;8;
70691;PMS5003;58267;51.156;17.044;2023-06-14T11:50:05;10;9;
70691;PMS5003;58267;51.156;17.044;2023-06-14T11:52:29;8;8;
70691;PMS5003;58267;51.156;17.044;2023-06-14T11:54:56;9;8;
70691;PMS5003;58267;51.156;17.044;2023-06-14T11:57:20;10;9;
70691;PMS5003;58267;51.156;17.044;2023-06-14T11:59:45;8;8;
70691;PMS5003;58267;51.156;17.044;2023-06-14T12:02:13;10;10;
70691;PMS5003;58267;51.156;17.044;2023-06-14T12:04:35;9;8;
70691;PMS5003;58267;51.156;17.044;2023-06-14T12:09:26;11;11;
70691;PMS5003;58267;51.156;17.044;2023-06-14T12:11:51;11;11;
70691;PMS5003;58267;51.156;17.044;2023-06-14T12:14:16;12;11;
70691;PMS5003;58267;51.156;17.044;2023-06-14T12:16:41;11;11;
70691;PMS5003;58267;51.156;17.044;2023-06-14T12:19:11;11;11;
70691;PMS5003;58267;51.156;17.044;2023-06-14T12:21:31;12;12;
70691;PMS5003;58267;51.156;17.044;2023-06-14T12:23:57;12;11;
70691;PMS5003;58267;51.156;17.044;2023-06-14T12:26:22;12;12;
70691;PMS5003;58267;51.156;17.044;2023-06-14T12:28:48;10;10;
70691;PMS5003;58267;51.156;17.044;2023-06-14T12:31:13;13;12;
70691;PMS5003;58267;51.156;17.044;2023-06-14T12:33:39;13;12;
70691;PMS5003;58267;51.156;17.044;2023-06-14T12:36:04;10;10;
70691;PMS5003;58267;51.156;17.044;2023-06-14T12:38:29;10;10;
70691;PMS5003;58267;51.156;17.044;2023-06-14T12:40:55;13;13;
70691;PMS5003;58267;51.156;17.044;2023-06-14T12:43:20;12;11;
70691;PMS5003;58267;51.156;17.044;2023-06-14T12:45:46;9;9;
70691;PMS5003;58267;51.156;17.044;2023-06-14T12:48:11;11;11;
70691;PMS5003;58267;51.156;17.044;2023-06-14T12:50:36;11;10;
70691;PMS5003;58267;51.156;17.044;2023-06-14T12:53:01;11;11;
70691;PMS5003;58267;51.156;17.044;2023-06-14T12:55:27;10;9;
70691;PMS5003;58267;51.156;17.044;2023-06-14T12:57:52;12;12;
70691;PMS5003;58267;51.156;17.044;2023-06-14T13:00:17;10;9;
70691;PMS5003;58267;51.156;17.044;2023-06-14T13:02:42;10;10;
70691;PMS5003;58267;51.156;17.044;2023-06-14T13:05:07;11;10;
70691;PMS5003;58267;51.156;17.044;2023-06-14T13:07:33;12;11;
70691;PMS5003;58267;51.156;17.044;2023-06-14T13:09:59;11;10;
70691;PMS5003;58267;51.156;17.044;2023-06-14T13:12:24;9;9;
70691;PMS5003;58267;51.156;17.044;2023-06-14T13:14:49;9;9;
70691;PMS5003;58267;51.156;17.044;2023-06-14T13:17:15;10;10;
70691;PMS5003;58267;51.156;17.044;2023-06-14T13:19:40;11;11;
70691;PMS5003;58267;51.156;17.044;2023-06-14T13:22:05;8;8;
70691;PMS5003;58267;51.156;17.044;2023-06-14T13:24:30;12;11;
70691;PMS5003;58267;51.156;17.044;2023-06-14T13:26:56;10;10;
70691;PMS5003;58267;51.156;17.044;2023-06-14T13:29:23;12;11;
70691;PMS5003;58267;51.156;17.044;2023-06-14T13:31:48;11;11;
70691;PMS5003;58267;51.156;17.044;2023-06-14T13:34:13;11;10;
70691;PMS5003;58267;51.156;17.044;2023-06-14T13:36:38;14;14;
70691;PMS5003;58267;51.156;17.044;2023-06-14T13:39:04;12;12;
70691;PMS5003;58267;51.156;17.044;2023-06-14T13:41:31;13;13;
70691;PMS5003;58267;51.156;17.044;2023-06-14T13:43:55;13;13;
70691;PMS5003;58267;51.156;17.044;2023-06-14T13:46:21;13;13;
70691;PMS5003;58267;51.156;17.044;2023-06-14T13:48:46;11;11;
70691;PMS5003;58267;51.156;17.044;2023-06-14T13:51:12;15;15;
70691;PMS5003;58267;51.156;17.044;2023-06-14T13:53:38;16;14;
70691;PMS5003;58267;51.156;17.044;2023-06-14T13:56:03;15;15;
70691;PMS5003;58267;51.156;17.044;2023-06-14T13:58:28;12;12;
70691;PMS5003;58267;51.156;17.044;2023-06-14T14:00:53;12;12;
70691;PMS5003;58267;51.156;17.044;2023-06-14T14:03:18;13;13;
70691;PMS5003;58267;51.156;17.044;2023-06-14T14:05:44;13;13;
70691;PMS5003;58267;51.156;17.044;2023-06-14T14:08:10;13;13;
70691;PMS5003;58267;51.156;17.044;2023-06-14T14:10:35;14;14;
70691;PMS5003;58267;51.156;17.044;2023-06-14T14:13:00;13;12;
70691;PMS5003;58267;51.156;17.044;2023-06-14T14:15:25;12;12;
70691;PMS5003;58267;51.156;17.044;2023-06-14T14:17:50;14;13;
70691;PMS5003;58267;51.156;17.044;2023-06-14T14:20:16;13;13;
70691;PMS5003;58267;51.156;17.044;2023-06-14T14:22:41;11;11;
70691;PMS5003;58267;51.156;17.044;2023-06-14T14:25:06;11;11;
70691;PMS5003;58267;51.156;17.044;2023-06-14T14:27:32;11;10;
70691;PMS5003;58267;51.156;17.044;2023-06-14T14:29:57;11;10;
70691;PMS5003;58267;51.156;17.044;2023-06-14T14:32:22;11;10;
70691;PMS5003;58267;51.156;17.044;2023-06-14T14:34:47;11;10;
70691;PMS5003;58267;51.156;17.044;2023-06-14T14:37:13;10;9;
70691;PMS5003;58267;51.156;17.044;2023-06-14T14:39:38;9;9;
70691;PMS5003;58267;51.156;17.044;2023-06-14T14:42:03;9;9;
70691;PMS5003;58267;51.156;17.044;2023-06-14T14:44:28;9;8;
70691;PMS5003;58267;51.156;17.044;2023-06-14T14:46:53;9;8;
70691;PMS5003;58267;51.156;17.044;2023-06-14T14:49:18;8;8;
70691;PMS5003;58267;51.156;17.044;2023-06-14T14:51:44;7;7;
70691;PMS5003;58267;51.156;17.044;2023-06-14T14:54:09;10;9;
70691;PMS5003;58267;51.156;17.044;2023-06-14T14:56:34;8;8;
70691;PMS5003;58267;51.156;17.044;2023-06-14T14:58:59;8;8;
70691;PMS5003;58267;51.156;17.044;2023-06-14T15:01:24;10;9;
70691;PMS5003;58267;51.156;17.044;2023-06-14T15:03:50;9;9;
70691;PMS5003;58267;51.156;17.044;2023-06-14T15:06:15;7;7;
70691;PMS5003;58267;51.156;17.044;2023-06-14T15:08:40;8;8;
70691;PMS5003;58267;51.156;17.044;2023-06-14T15:11:05;9;9;
70691;PMS5003;58267;51.156;17.044;2023-06-14T15:13:31;10;10;
70691;PMS5003;58267;51.156;17.044;2023-06-14T15:15:56;10;10;
70691;PMS5003;58267;51.156;17.044;2023-06-14T15:18:22;11;11;
70691;PMS5003;58267;51.156;17.044;2023-06-14T15:20:47;11;11;
70691;PMS5003;58267;51.156;17.044;2023-06-14T15:23:12;10;9;
70691;PMS5003;58267;51.156;17.044;2023-06-14T15:25:37;7;7;
70691;PMS5003;58267;51.156;17.044;2023-06-14T15:28:03;12;12;
70691;PMS5003;58267;51.156;17.044;2023-06-14T15:30:28;12;12;
70691;PMS5003;58267;51.156;17.044;2023-06-14T15:32:54;10;10;
70691;PMS5003;58267;51.156;17.044;2023-06-14T15:35:19;9;9;
70691;PMS5003;58267;51.156;17.044;2023-06-14T15:37:44;11;11;
70691;PMS5003;58267;51.156;17.044;2023-06-14T15:40:09;12;12;
70691;PMS5003;58267;51.156;17.044;2023-06-14T15:42:35;15;15;
70691;PMS5003;58267;51.156;17.044;2023-06-14T15:45:00;11;11;
70691;PMS5003;58267;51.156;17.044;2023-06-14T15:47:25;11;11;
70691;PMS5003;58267;51.156;17.044;2023-06-14T15:49:50;10;9;
70691;PMS5003;58267;51.156;17.044;2023-06-14T15:52:16;10;10;
70691;PMS5003;58267;51.156;17.044;2023-06-14T15:54:41;9;9;
70691;PMS5003;58267;51.156;17.044;2023-06-14T15:57:06;13;13;